sensor_id;sensor_type;location;lat;lon;timestamp;pressure;altitude;pressure_sealevel;temperature;humidity
7309;BME280;3695;53.330;9.876;2022-08-19T00:00:33;119348.56;;;19.24;54.34
7309;BME280;3695;53.330;9.876;2022-08-19T00:03:00;119521.34;;;19.29;54.28
7309;BME280;3695;53.330;9.876;2022-08-19T00:05:26;119698.25;;;19.38;54.22
7309;BME280;3695;53.330;9.876;2022-08-19T00:07:53;118799.41;;;19.11;54.30
7309;BME280;3695;53.330;9.876;2022-08-19T00:10:21;118987.19;;;19.20;54.19
7309;BME280;3695;53.330;9.876;2022-08-19T00:12:47;118769.19;;;19.13;54.18
7309;BME280;3695;53.330;9.876;2022-08-19T00:15:16;118210.53;;;19.04;54.10
7309;BME280;3695;53.330;9.876;2022-08-19T00:17:44;118243.66;;;19.04;54.01
7309;BME280;3695;53.330;9.876;2022-08-19T00:20:15;118789.31;;;19.21;53.89
7309;BME280;3695;53.330;9.876;2022-08-19T00:22:43;117907.16;;;18.97;53.92
7309;BME280;3695;53.330;9.876;2022-08-19T00:25:10;118083.03;;;19.08;53.74
7309;BME280;3695;53.330;9.876;2022-08-19T00:27:38;118908.88;;;19.28;53.62
7309;BME280;3695;53.330;9.876;2022-08-19T00:30:06;118203.38;;;19.06;53.70
7309;BME280;3695;53.330;9.876;2022-08-19T00:32:33;117350.69;;;18.87;53.69
7309;BME280;3695;53.330;9.876;2022-08-19T00:34:59;117652.69;;;19.01;53.55
7309;BME280;3695;53.330;9.876;2022-08-19T00:37:27;117920.84;;;19.05;53.50
7309;BME280;3695;53.330;9.876;2022-08-19T00:39:53;117353.56;;;18.88;53.50
7309;BME280;3695;53.330;9.876;2022-08-19T00:42:21;117545.63;;;18.97;53.43
7309;BME280;3695;53.330;9.876;2022-08-19T00:44:49;117771.38;;;19.01;53.38
7309;BME280;3695;53.330;9.876;2022-08-19T00:47:16;117353.81;;;18.92;53.38
7309;BME280;3695;53.330;9.876;2022-08-19T00:49:45;117072.97;;;18.87;53.31
7309;BME280;3695;53.330;9.876;2022-08-19T00:52:19;117282.06;;;18.92;53.30
7309;BME280;3695;53.330;9.876;2022-08-19T00:54:47;117520.22;;;19.01;53.20
7309;BME280;3695;53.330;9.876;2022-08-19T00:57:15;117245.41;;;18.93;53.21
7309;BME280;3695;53.330;9.876;2022-08-19T00:59:46;116899.41;;;18.91;53.11
7309;BME280;3695;53.330;9.876;2022-08-19T01:02:16;116767.47;;;18.85;53.11
7309;BME280;3695;53.330;9.876;2022-08-19T01:04:42;116881.66;;;18.87;53.08
7309;BME280;3695;53.330;9.876;2022-08-19T01:07:09;116745.84;;;18.91;53.00
7309;BME280;3695;53.330;9.876;2022-08-19T01:09:35;116645.03;;;18.83;53.00
7309;BME280;3695;53.330;9.876;2022-08-19T01:12:02;116752.00;;;18.87;52.96
7309;BME280;3695;53.330;9.876;2022-08-19T01:14:30;115615.91;;;18.61;52.97
7309;BME280;3695;53.330;9.876;2022-08-19T01:16:57;115739.41;;;18.66;52.90
7309;BME280;3695;53.330;9.876;2022-08-19T01:19:30;116509.34;;;18.88;52.81
7309;BME280;3695;53.330;9.876;2022-08-19T01:22:01;116114.41;;;18.81;52.81
7309;BME280;3695;53.330;9.876;2022-08-19T01:24:30;115865.66;;;18.72;52.79
7309;BME280;3695;53.330;9.876;2022-08-19T01:26:57;114906.16;;;18.51;52.83
7309;BME280;3695;53.330;9.876;2022-08-19T01:29:24;114851.25;;;18.55;52.76
7309;BME280;3695;53.330;9.876;2022-08-19T01:31:50;114720.78;;;18.55;52.72
7309;BME280;3695;53.330;9.876;2022-08-19T01:34:18;114574.47;;;18.49;52.72
7309;BME280;3695;53.330;9.876;2022-08-19T01:36:46;114199.47;;;18.41;52.71
7309;BME280;3695;53.330;9.876;2022-08-19T01:39:16;115110.06;;;18.69;52.65
7309;BME280;3695;53.330;9.876;2022-08-19T01:41:46;115197.19;;;18.65;52.66
7309;BME280;3695;53.330;9.876;2022-08-19T01:44:12;115154.81;;;18.63;52.65
7309;BME280;3695;53.330;9.876;2022-08-19T01:46:38;114831.00;;;18.55;52.66
7309;BME280;3695;53.330;9.876;2022-08-19T01:49:06;114151.72;;;18.41;52.66
7309;BME280;3695;53.330;9.876;2022-08-19T01:51:33;113832.09;;;18.38;52.66
7309;BME280;3695;53.330;9.876;2022-08-19T01:54:00;114131.78;;;18.48;52.60
7309;BME280;3695;53.330;9.876;2022-08-19T01:56:26;113999.38;;;18.43;52.60
7309;BME280;3695;53.330;9.876;2022-08-19T01:58:57;113903.75;;;18.39;52.61
7309;BME280;3695;53.330;9.876;2022-08-19T02:01:26;113130.44;;;18.21;52.62
7309;BME280;3695;53.330;9.876;2022-08-19T02:03:52;113674.22;;;18.39;52.58
7309;BME280;3695;53.330;9.876;2022-08-19T02:06:20;112469.69;;;18.11;52.61
7309;BME280;3695;53.330;9.876;2022-08-19T02:08:46;113091.13;;;18.29;52.58
7309;BME280;3695;53.330;9.876;2022-08-19T02:11:19;113899.50;;;18.49;52.55
7309;BME280;3695;53.330;9.876;2022-08-19T02:13:46;113668.66;;;18.37;52.57
7309;BME280;3695;53.330;9.876;2022-08-19T02:16:14;113640.13;;;18.34;52.59
7309;BME280;3695;53.330;9.876;2022-08-19T02:18:40;114354.28;;;18.55;52.57
7309;BME280;3695;53.330;9.876;2022-08-19T02:21:06;114580.31;;;18.56;52.60
7309;BME280;3695;53.330;9.876;2022-08-19T02:23:33;115005.97;;;18.63;52.61
7309;BME280;3695;53.330;9.876;2022-08-19T02:25:59;114512.19;;;18.52;52.63
7309;BME280;3695;53.330;9.876;2022-08-19T02:28:26;114732.88;;;18.59;52.63
7309;BME280;3695;53.330;9.876;2022-08-19T02:30:52;114935.00;;;18.59;52.65
7309;BME280;3695;53.330;9.876;2022-08-19T02:33:20;114241.78;;;18.43;52.69
7309;BME280;3695;53.330;9.876;2022-08-19T02:35:46;114237.31;;;18.45;52.71
7309;BME280;3695;53.330;9.876;2022-08-19T02:38:13;114138.03;;;18.44;52.71
7309;BME280;3695;53.330;9.876;2022-08-19T02:40:54;114257.53;;;18.46;52.71
7309;BME280;3695;53.330;9.876;2022-08-19T02:43:21;114523.25;;;18.54;52.72
7309;BME280;3695;53.330;9.876;2022-08-19T02:45:49;115237.03;;;18.72;52.71
7309;BME280;3695;53.330;9.876;2022-08-19T02:48:17;114845.81;;;18.57;52.76
7309;BME280;3695;53.330;9.876;2022-08-19T02:50:46;115364.00;;;18.75;52.73
7309;BME280;3695;53.330;9.876;2022-08-19T02:53:13;115528.66;;;18.77;52.77
7309;BME280;3695;53.330;9.876;2022-08-19T02:55:44;114812.88;;;18.60;52.81
7309;BME280;3695;53.330;9.876;2022-08-19T02:58:11;114822.94;;;18.60;52.83
7309;BME280;3695;53.330;9.876;2022-08-19T03:00:42;115469.88;;;18.78;52.82
7309;BME280;3695;53.330;9.876;2022-08-19T03:03:09;116082.72;;;18.89;52.80
7309;BME280;3695;53.330;9.876;2022-08-19T03:05:35;114941.53;;;18.61;52.88
7309;BME280;3695;53.330;9.876;2022-08-19T03:08:03;115150.53;;;18.70;52.87
7309;BME280;3695;53.330;9.876;2022-08-19T03:10:30;115387.00;;;18.75;52.88
7309;BME280;3695;53.330;9.876;2022-08-19T03:12:57;115717.28;;;18.81;52.91
7309;BME280;3695;53.330;9.876;2022-08-19T03:15:23;114292.47;;;18.47;52.99
7309;BME280;3695;53.330;9.876;2022-08-19T03:17:50;114382.63;;;18.51;52.97
7309;BME280;3695;53.330;9.876;2022-08-19T03:20:17;114674.47;;;18.67;52.90
7309;BME280;3695;53.330;9.876;2022-08-19T03:22:43;114546.31;;;18.56;52.92
7309;BME280;3695;53.330;9.876;2022-08-19T03:25:11;115788.78;;;18.93;52.86
7309;BME280;3695;53.330;9.876;2022-08-19T03:27:38;114831.28;;;18.61;52.95
7309;BME280;3695;53.330;9.876;2022-08-19T03:30:05;114813.91;;;18.62;52.96
7309;BME280;3695;53.330;9.876;2022-08-19T03:32:32;114473.72;;;18.55;52.97
7309;BME280;3695;53.330;9.876;2022-08-19T03:34:59;114275.38;;;18.57;52.96
7309;BME280;3695;53.330;9.876;2022-08-19T03:37:25;113469.53;;;18.40;52.96
7309;BME280;3695;53.330;9.876;2022-08-19T03:39:51;113443.91;;;18.44;52.94
7309;BME280;3695;53.330;9.876;2022-08-19T03:42:19;112915.88;;;18.32;52.92
7309;BME280;3695;53.330;9.876;2022-08-19T03:44:46;113104.16;;;18.39;52.87
7309;BME280;3695;53.330;9.876;2022-08-19T03:47:12;113491.84;;;18.50;52.84
7309;BME280;3695;53.330;9.876;2022-08-19T03:49:41;114238.16;;;18.68;52.81
7309;BME280;3695;53.330;9.876;2022-08-19T03:52:08;113768.31;;;18.54;52.85
7309;BME280;3695;53.330;9.876;2022-08-19T03:54:35;113862.13;;;18.59;52.84
7309;BME280;3695;53.330;9.876;2022-08-19T03:57:03;114157.09;;;18.62;52.85
7309;BME280;3695;53.330;9.876;2022-08-19T03:59:34;113866.63;;;18.55;52.88
7309;BME280;3695;53.330;9.876;2022-08-19T04:02:06;113409.19;;;18.49;52.88
7309;BME280;3695;53.330;9.876;2022-08-19T04:04:34;113081.22;;;18.40;52.89
7309;BME280;3695;53.330;9.876;2022-08-19T04:07:00;113035.34;;;18.40;52.89
7309;BME280;3695;53.330;9.876;2022-08-19T04:09:27;113131.84;;;18.45;52.87
7309;BME280;3695;53.330;9.876;2022-08-19T04:11:55;113813.69;;;18.65;52.83
7309;BME280;3695;53.330;9.876;2022-08-19T04:14:23;113276.91;;;18.46;52.88
7309;BME280;3695;53.330;9.876;2022-08-19T04:16:52;113401.81;;;18.48;52.88
7309;BME280;3695;53.330;9.876;2022-08-19T04:19:18;113708.69;;;18.56;52.88
7309;BME280;3695;53.330;9.876;2022-08-19T04:21:53;111817.53;;;18.15;52.96
7309;BME280;3695;53.330;9.876;2022-08-19T04:24:21;112788.44;;;18.41;52.89
7309;BME280;3695;53.330;9.876;2022-08-19T04:26:48;112010.16;;;18.21;52.94
7309;BME280;3695;53.330;9.876;2022-08-19T04:29:17;112487.34;;;18.36;52.88
7309;BME280;3695;53.330;9.876;2022-08-19T04:31:46;112805.00;;;18.44;52.88
7309;BME280;3695;53.330;9.876;2022-08-19T04:34:16;112033.09;;;18.30;52.88
7309;BME280;3695;53.330;9.876;2022-08-19T04:36:44;112520.44;;;18.42;52.86
7309;BME280;3695;53.330;9.876;2022-08-19T04:39:15;112755.47;;;18.45;52.87
7309;BME280;3695;53.330;9.876;2022-08-19T04:41:42;113101.72;;;18.55;52.86
7309;BME280;3695;53.330;9.876;2022-08-19T04:44:27;113868.06;;;18.72;52.84
7309;BME280;3695;53.330;9.876;2022-08-19T04:46:55;113460.81;;;18.59;52.89
7309;BME280;3695;53.330;9.876;2022-08-19T04:49:24;112365.31;;;18.37;52.93
7309;BME280;3695;53.330;9.876;2022-08-19T04:51:52;111493.75;;;18.17;52.99
7309;BME280;3695;53.330;9.876;2022-08-19T04:54:21;112134.06;;;18.37;52.91
7309;BME280;3695;53.330;9.876;2022-08-19T04:56:50;112139.56;;;18.37;52.91
7309;BME280;3695;53.330;9.876;2022-08-19T04:59:17;112689.44;;;18.50;52.88
7309;BME280;3695;53.330;9.876;2022-08-19T05:01:46;112257.00;;;18.36;52.94
7309;BME280;3695;53.330;9.876;2022-08-19T05:04:15;112547.13;;;18.46;52.91
7309;BME280;3695;53.330;9.876;2022-08-19T05:06:44;111771.63;;;18.28;52.95
7309;BME280;3695;53.330;9.876;2022-08-19T05:09:12;111395.59;;;18.19;52.99
7309;BME280;3695;53.330;9.876;2022-08-19T05:11:38;111187.41;;;18.18;52.97
7309;BME280;3695;53.330;9.876;2022-08-19T05:14:05;111676.19;;;18.35;52.88
7309;BME280;3695;53.330;9.876;2022-08-19T05:16:32;111927.59;;;18.41;52.88
7309;BME280;3695;53.330;9.876;2022-08-19T05:18:58;111331.34;;;18.23;52.93
7309;BME280;3695;53.330;9.876;2022-08-19T05:21:43;111547.75;;;18.34;52.87
7309;BME280;3695;53.330;9.876;2022-08-19T05:24:28;111539.50;;;18.34;52.86
7309;BME280;3695;53.330;9.876;2022-08-19T05:26:56;112303.91;;;18.50;52.85
7309;BME280;3695;53.330;9.876;2022-08-19T05:29:25;111978.97;;;18.41;52.90
7309;BME280;3695;53.330;9.876;2022-08-19T05:31:52;112114.78;;;18.43;52.91
7309;BME280;3695;53.330;9.876;2022-08-19T05:34:21;111961.53;;;18.40;52.92
7309;BME280;3695;53.330;9.876;2022-08-19T05:36:50;111887.22;;;18.36;52.96
7309;BME280;3695;53.330;9.876;2022-08-19T05:39:23;110941.66;;;18.16;53.02
7309;BME280;3695;53.330;9.876;2022-08-19T05:41:53;111090.06;;;18.27;52.98
7309;BME280;3695;53.330;9.876;2022-08-19T05:44:23;111933.13;;;18.46;52.94
7309;BME280;3695;53.330;9.876;2022-08-19T05:46:49;111312.97;;;18.29;53.00
7309;BME280;3695;53.330;9.876;2022-08-19T05:49:18;110841.66;;;18.19;53.05
7309;BME280;3695;53.330;9.876;2022-08-19T05:51:45;111315.63;;;18.36;52.97
7309;BME280;3695;53.330;9.876;2022-08-19T05:54:11;110927.75;;;18.25;53.02
7309;BME280;3695;53.330;9.876;2022-08-19T05:56:39;110765.50;;;18.22;53.02
7309;BME280;3695;53.330;9.876;2022-08-19T05:59:09;111205.53;;;18.36;52.99
7309;BME280;3695;53.330;9.876;2022-08-19T06:01:37;111059.69;;;18.35;53.01
7309;BME280;3695;53.330;9.876;2022-08-19T06:04:04;110684.63;;;18.31;52.98
7309;BME280;3695;53.330;9.876;2022-08-19T06:06:31;110066.88;;;18.18;53.01
7309;BME280;3695;53.330;9.876;2022-08-19T06:08:59;109810.38;;;18.13;53.02
7309;BME280;3695;53.330;9.876;2022-08-19T06:11:32;109572.13;;;18.10;53.02
7309;BME280;3695;53.330;9.876;2022-08-19T06:14:02;109658.09;;;18.15;53.01
7309;BME280;3695;53.330;9.876;2022-08-19T06:16:30;110149.06;;;18.30;53.00
7309;BME280;3695;53.330;9.876;2022-08-19T06:19:01;109837.59;;;18.20;53.07
7309;BME280;3695;53.330;9.876;2022-08-19T06:21:29;109774.25;;;18.23;53.12
7309;BME280;3695;53.330;9.876;2022-08-19T06:23:57;109842.00;;;18.26;53.20
7309;BME280;3695;53.330;9.876;2022-08-19T06:26:24;108827.34;;;18.04;53.35
7309;BME280;3695;53.330;9.876;2022-08-19T06:28:52;109372.81;;;18.20;53.39
7309;BME280;3695;53.330;9.876;2022-08-19T06:31:21;108309.22;;;17.96;53.61
7309;BME280;3695;53.330;9.876;2022-08-19T06:33:50;108675.19;;;18.05;53.72
7309;BME280;3695;53.330;9.876;2022-08-19T06:36:18;109018.31;;;18.16;53.86
7309;BME280;3695;53.330;9.876;2022-08-19T06:38:45;108882.84;;;18.12;54.16
7309;BME280;3695;53.330;9.876;2022-08-19T06:41:12;108562.41;;;18.07;54.54
7309;BME280;3695;53.330;9.876;2022-08-19T06:43:38;108085.41;;;18.01;55.03
7309;BME280;3695;53.330;9.876;2022-08-19T06:46:11;108099.38;;;17.97;56.01
7309;BME280;3695;53.330;9.876;2022-08-19T06:48:38;107889.75;;;17.94;56.61
7309;BME280;3695;53.330;9.876;2022-08-19T06:51:06;109344.88;;;18.31;56.76
7309;BME280;3695;53.330;9.876;2022-08-19T06:53:33;108489.88;;;18.09;57.41
7309;BME280;3695;53.330;9.876;2022-08-19T06:55:59;108692.03;;;18.16;57.84
7309;BME280;3695;53.330;9.876;2022-08-19T06:58:27;108199.50;;;18.08;58.53
7309;BME280;3695;53.330;9.876;2022-08-19T07:00:57;108758.66;;;18.21;58.87
7309;BME280;3695;53.330;9.876;2022-08-19T07:03:26;108011.13;;;18.03;59.52
7309;BME280;3695;53.330;9.876;2022-08-19T07:05:53;107820.00;;;17.97;59.94
7309;BME280;3695;53.330;9.876;2022-08-19T07:08:21;109134.06;;;18.30;59.89
7309;BME280;3695;53.330;9.876;2022-08-19T07:10:47;108946.59;;;18.20;60.40
7309;BME280;3695;53.330;9.876;2022-08-19T07:13:14;108350.66;;;18.08;60.79
7309;BME280;3695;53.330;9.876;2022-08-19T07:15:41;109660.09;;;18.37;60.75
7309;BME280;3695;53.330;9.876;2022-08-19T07:18:07;109508.06;;;18.32;61.11
7309;BME280;3695;53.330;9.876;2022-08-19T07:20:34;109550.28;;;18.31;61.37
7309;BME280;3695;53.330;9.876;2022-08-19T07:23:02;110395.22;;;18.52;61.29
7309;BME280;3695;53.330;9.876;2022-08-19T07:25:29;109809.53;;;18.37;61.64
7309;BME280;3695;53.330;9.876;2022-08-19T07:27:56;110345.72;;;18.51;61.62
7309;BME280;3695;53.330;9.876;2022-08-19T07:30:22;110989.63;;;18.62;61.61
7309;BME280;3695;53.330;9.876;2022-08-19T07:32:49;111115.28;;;18.66;61.66
7309;BME280;3695;53.330;9.876;2022-08-19T07:35:16;111251.16;;;18.63;61.78
7309;BME280;3695;53.330;9.876;2022-08-19T07:37:44;110714.44;;;18.54;61.82
7309;BME280;3695;53.330;9.876;2022-08-19T07:40:11;110875.84;;;18.58;61.73
7309;BME280;3695;53.330;9.876;2022-08-19T07:42:40;111807.31;;;18.80;61.48
7309;BME280;3695;53.330;9.876;2022-08-19T07:45:08;111710.91;;;18.75;61.48
7309;BME280;3695;53.330;9.876;2022-08-19T07:47:35;111773.34;;;18.73;61.43
7309;BME280;3695;53.330;9.876;2022-08-19T07:50:03;110799.88;;;18.49;61.57
7309;BME280;3695;53.330;9.876;2022-08-19T07:52:30;110249.56;;;18.43;61.51
7309;BME280;3695;53.330;9.876;2022-08-19T07:54:56;111314.38;;;18.71;61.19
7309;BME280;3695;53.330;9.876;2022-08-19T07:57:25;109980.00;;;18.40;61.44
7309;BME280;3695;53.330;9.876;2022-08-19T07:59:52;109561.28;;;18.31;61.51
7309;BME280;3695;53.330;9.876;2022-08-19T08:02:19;109029.25;;;18.17;61.59
7309;BME280;3695;53.330;9.876;2022-08-19T08:04:46;108975.06;;;18.19;61.53
7309;BME280;3695;53.330;9.876;2022-08-19T08:07:29;108791.97;;;18.15;61.53
7309;BME280;3695;53.330;9.876;2022-08-19T08:10:14;109083.81;;;18.27;61.39
7309;BME280;3695;53.330;9.876;2022-08-19T08:12:40;109587.59;;;18.38;61.25
7309;BME280;3695;53.330;9.876;2022-08-19T08:15:13;111366.63;;;18.78;60.89
7309;BME280;3695;53.330;9.876;2022-08-19T08:17:42;110865.78;;;18.57;61.21
7309;BME280;3695;53.330;9.876;2022-08-19T08:20:10;110613.47;;;18.56;61.19
7309;BME280;3695;53.330;9.876;2022-08-19T08:22:36;108464.50;;;18.04;61.76
7309;BME280;3695;53.330;9.876;2022-08-19T08:25:23;108559.25;;;18.14;61.59
7309;BME280;3695;53.330;9.876;2022-08-19T08:27:50;108146.22;;;18.11;61.48
7309;BME280;3695;53.330;9.876;2022-08-19T08:30:21;108879.34;;;18.28;61.28
7309;BME280;3695;53.330;9.876;2022-08-19T08:32:48;109687.31;;;18.44;61.13
7309;BME280;3695;53.330;9.876;2022-08-19T08:35:18;108690.91;;;18.20;61.44
7309;BME280;3695;53.330;9.876;2022-08-19T08:37:46;108403.19;;;18.19;61.40
7309;BME280;3695;53.330;9.876;2022-08-19T08:40:19;108994.41;;;18.37;61.19
7309;BME280;3695;53.330;9.876;2022-08-19T08:42:51;110592.97;;;18.71;60.97
7309;BME280;3695;53.330;9.876;2022-08-19T08:45:23;110138.28;;;18.55;61.28
7309;BME280;3695;53.330;9.876;2022-08-19T08:47:52;110029.03;;;18.57;61.29
7309;BME280;3695;53.330;9.876;2022-08-19T08:50:24;108406.91;;;18.18;61.71
7309;BME280;3695;53.330;9.876;2022-08-19T08:52:54;110394.97;;;18.63;61.27
7309;BME280;3695;53.330;9.876;2022-08-19T08:55:24;110235.38;;;18.60;61.41
7309;BME280;3695;53.330;9.876;2022-08-19T08:57:55;109941.06;;;18.54;61.52
7309;BME280;3695;53.330;9.876;2022-08-19T09:00:29;110079.53;;;18.56;61.54
7309;BME280;3695;53.330;9.876;2022-08-19T09:02:57;110918.66;;;18.77;61.36
7309;BME280;3695;53.330;9.876;2022-08-19T09:05:30;111676.84;;;18.88;61.33
7309;BME280;3695;53.330;9.876;2022-08-19T09:08:02;111179.31;;;18.80;61.35
7309;BME280;3695;53.330;9.876;2022-08-19T09:10:36;111563.91;;;18.88;61.23
7309;BME280;3695;53.330;9.876;2022-08-19T09:13:10;112464.03;;;19.08;61.02
7309;BME280;3695;53.330;9.876;2022-08-19T09:15:43;112656.03;;;19.06;61.03
7309;BME280;3695;53.330;9.876;2022-08-19T09:18:11;113326.16;;;19.21;60.81
7309;BME280;3695;53.330;9.876;2022-08-19T09:20:37;110736.25;;;18.66;61.15
7309;BME280;3695;53.330;9.876;2022-08-19T09:23:04;111169.28;;;18.76;60.87
7309;BME280;3695;53.330;9.876;2022-08-19T09:25:30;111854.09;;;18.94;60.56
7309;BME280;3695;53.330;9.876;2022-08-19T09:27:57;112916.16;;;19.14;60.31
7309;BME280;3695;53.330;9.876;2022-08-19T09:30:31;112609.19;;;19.06;60.31
7309;BME280;3695;53.330;9.876;2022-08-19T09:32:59;113055.81;;;19.12;60.15
7309;BME280;3695;53.330;9.876;2022-08-19T09:35:28;113933.13;;;19.30;59.91
7309;BME280;3695;53.330;9.876;2022-08-19T09:37:55;113953.28;;;19.28;59.87
7309;BME280;3695;53.330;9.876;2022-08-19T09:40:22;114850.50;;;19.43;59.72
7309;BME280;3695;53.330;9.876;2022-08-19T09:42:50;115354.22;;;19.53;59.60
7309;BME280;3695;53.330;9.876;2022-08-19T09:45:19;116043.03;;;19.61;59.57
7309;BME280;3695;53.330;9.876;2022-08-19T09:47:47;116819.09;;;19.74;59.53
7309;BME280;3695;53.330;9.876;2022-08-19T09:50:15;117375.53;;;19.88;59.42
7309;BME280;3695;53.330;9.876;2022-08-19T09:52:41;119352.66;;;20.27;59.19
7309;BME280;3695;53.330;9.876;2022-08-19T09:55:10;120416.06;;;20.47;59.25
7309;BME280;3695;53.330;9.876;2022-08-19T09:57:37;119216.44;;;20.03;59.85
7309;BME280;3695;53.330;9.876;2022-08-19T10:00:06;119139.81;;;20.02;59.75
7309;BME280;3695;53.330;9.876;2022-08-19T10:02:33;118429.50;;;19.78;59.88
7309;BME280;3695;53.330;9.876;2022-08-19T10:04:59;118823.63;;;19.85;59.69
7309;BME280;3695;53.330;9.876;2022-08-19T10:07:45;117749.47;;;19.55;59.75
7309;BME280;3695;53.330;9.876;2022-08-19T10:10:12;118932.25;;;19.84;59.29
7309;BME280;3695;53.330;9.876;2022-08-19T10:12:38;120339.81;;;20.21;58.83
7309;BME280;3695;53.330;9.876;2022-08-19T10:15:06;120554.09;;;20.16;58.94
7309;BME280;3695;53.330;9.876;2022-08-19T10:17:33;119205.16;;;19.76;59.24
7309;BME280;3695;53.330;9.876;2022-08-19T10:20:00;119967.44;;;20.00;58.85
7309;BME280;3695;53.330;9.876;2022-08-19T10:22:27;122029.44;;;20.52;58.41
7309;BME280;3695;53.330;9.876;2022-08-19T10:24:55;122366.94;;;20.49;58.68
7309;BME280;3695;53.330;9.876;2022-08-19T10:27:22;123139.69;;;20.64;58.81
7309;BME280;3695;53.330;9.876;2022-08-19T10:29:48;123998.94;;;20.80;58.98
7309;BME280;3695;53.330;9.876;2022-08-19T10:32:15;124531.66;;;20.91;59.07
7309;BME280;3695;53.330;9.876;2022-08-19T10:34:42;123452.28;;;20.50;59.82
7309;BME280;3695;53.330;9.876;2022-08-19T10:37:08;123809.19;;;20.62;59.68
7309;BME280;3695;53.330;9.876;2022-08-19T10:39:36;124366.44;;;20.78;59.53
7309;BME280;3695;53.330;9.876;2022-08-19T10:42:06;122737.91;;;20.31;60.00
7309;BME280;3695;53.330;9.876;2022-08-19T10:44:33;122588.13;;;20.35;59.55
7309;BME280;3695;53.330;9.876;2022-08-19T10:47:01;122689.31;;;20.38;59.24
7309;BME280;3695;53.330;9.876;2022-08-19T10:49:27;122689.09;;;20.37;59.04
7309;BME280;3695;53.330;9.876;2022-08-19T10:51:54;123691.28;;;20.64;58.78
7309;BME280;3695;53.330;9.876;2022-08-19T10:54:38;122556.16;;;20.26;59.15
7309;BME280;3695;53.330;9.876;2022-08-19T10:57:23;123354.31;;;20.55;58.64
7309;BME280;3695;53.330;9.876;2022-08-19T10:59:54;123946.31;;;20.64;58.66
7309;BME280;3695;53.330;9.876;2022-08-19T11:02:21;123331.34;;;20.45;58.79
7309;BME280;3695;53.330;9.876;2022-08-19T11:04:47;123446.53;;;20.54;58.50
7309;BME280;3695;53.330;9.876;2022-08-19T11:07:16;124274.09;;;20.73;58.34
7309;BME280;3695;53.330;9.876;2022-08-19T11:09:43;124208.94;;;20.65;58.52
7309;BME280;3695;53.330;9.876;2022-08-19T11:12:11;124393.22;;;20.67;58.55
7309;BME280;3695;53.330;9.876;2022-08-19T11:14:41;124818.38;;;20.82;58.42
7309;BME280;3695;53.330;9.876;2022-08-19T11:17:07;125506.22;;;20.99;58.40
7309;BME280;3695;53.330;9.876;2022-08-19T11:19:34;126017.00;;;21.09;58.50
7309;BME280;3695;53.330;9.876;2022-08-19T11:22:00;124658.97;;;20.60;59.06
7309;BME280;3695;53.330;9.876;2022-08-19T11:24:28;125266.59;;;20.85;58.69
7309;BME280;3695;53.330;9.876;2022-08-19T11:27:01;125197.75;;;20.79;58.83
7309;BME280;3695;53.330;9.876;2022-08-19T11:29:30;125974.16;;;20.99;58.86
7309;BME280;3695;53.330;9.876;2022-08-19T11:31:58;127433.81;;;21.36;58.91
7309;BME280;3695;53.330;9.876;2022-08-19T11:34:27;128525.03;;;21.52;59.58
7309;BME280;3695;53.330;9.876;2022-08-19T11:36:55;128790.56;;;21.54;60.22
7309;BME280;3695;53.330;9.876;2022-08-19T11:39:24;129392.00;;;21.72;60.67
7309;BME280;3695;53.330;9.876;2022-08-19T11:41:51;130308.94;;;21.95;60.87
7309;BME280;3695;53.330;9.876;2022-08-19T11:44:17;129261.44;;;21.55;61.93
7309;BME280;3695;53.330;9.876;2022-08-19T11:46:45;128570.53;;;21.34;62.27
7309;BME280;3695;53.330;9.876;2022-08-19T11:49:14;128923.59;;;21.53;61.80
7309;BME280;3695;53.330;9.876;2022-08-19T11:51:41;128867.91;;;21.49;61.97
7309;BME280;3695;53.330;9.876;2022-08-19T11:54:10;128422.94;;;21.36;61.95
7309;BME280;3695;53.330;9.876;2022-08-19T11:56:38;127926.66;;;21.18;61.98
7309;BME280;3695;53.330;9.876;2022-08-19T11:59:05;127596.81;;;21.13;61.74
7309;BME280;3695;53.330;9.876;2022-08-19T12:01:33;127400.69;;;21.18;61.04
7309;BME280;3695;53.330;9.876;2022-08-19T12:04:00;128072.53;;;21.39;60.69
7309;BME280;3695;53.330;9.876;2022-08-19T12:06:30;128656.34;;;21.51;60.74
7309;BME280;3695;53.330;9.876;2022-08-19T12:09:01;128792.28;;;21.54;60.97
7309;BME280;3695;53.330;9.876;2022-08-19T12:11:28;131592.06;;;22.36;60.62
7309;BME280;3695;53.330;9.876;2022-08-19T12:13:55;132020.78;;;22.32;62.00
7309;BME280;3695;53.330;9.876;2022-08-19T12:16:25;133418.25;;;22.74;62.92
7309;BME280;3695;53.330;9.876;2022-08-19T12:18:52;132771.88;;;22.43;64.98
7309;BME280;3695;53.330;9.876;2022-08-19T12:21:21;133354.94;;;22.68;65.15
7309;BME280;3695;53.330;9.876;2022-08-19T12:23:50;133030.22;;;22.49;66.73
7309;BME280;3695;53.330;9.876;2022-08-19T12:26:17;132945.38;;;22.51;66.61
7309;BME280;3695;53.330;9.876;2022-08-19T12:28:44;133075.78;;;22.52;67.00
7309;BME280;3695;53.330;9.876;2022-08-19T12:31:11;135273.56;;;23.26;66.38
7309;BME280;3695;53.330;9.876;2022-08-19T12:33:38;136591.38;;;23.57;67.64
7309;BME280;3695;53.330;9.876;2022-08-19T12:36:07;136243.78;;;23.39;69.76
7309;BME280;3695;53.330;9.876;2022-08-19T12:38:35;133006.03;;;22.20;74.32
7309;BME280;3695;53.330;9.876;2022-08-19T12:41:03;134285.19;;;22.73;70.94
7309;BME280;3695;53.330;9.876;2022-08-19T12:43:32;134562.72;;;22.85;70.02
7309;BME280;3695;53.330;9.876;2022-08-19T12:45:59;135434.56;;;23.15;69.43
7309;BME280;3695;53.330;9.876;2022-08-19T12:48:26;136258.28;;;23.43;69.29
7309;BME280;3695;53.330;9.876;2022-08-19T12:50:54;135664.19;;;23.09;72.60
7309;BME280;3695;53.330;9.876;2022-08-19T12:53:20;137325.03;;;23.70;71.50
7309;BME280;3695;53.330;9.876;2022-08-19T12:55:47;137982.88;;;23.77;75.83
7309;BME280;3695;53.330;9.876;2022-08-19T12:58:14;137584.47;;;23.66;80.52
7309;BME280;3695;53.330;9.876;2022-08-19T13:00:42;137622.53;;;23.68;80.86
7309;BME280;3695;53.330;9.876;2022-08-19T13:03:09;135110.88;;;22.78;87.49
7309;BME280;3695;53.330;9.876;2022-08-19T13:05:36;134785.13;;;22.72;82.59
7309;BME280;3695;53.330;9.876;2022-08-19T13:08:03;134647.84;;;22.73;78.02
7309;BME280;3695;53.330;9.876;2022-08-19T13:10:31;135096.16;;;22.89;76.27
7309;BME280;3695;53.330;9.876;2022-08-19T13:13:01;134847.41;;;22.82;75.66
7309;BME280;3695;53.330;9.876;2022-08-19T13:15:33;135566.44;;;23.09;74.75